createdAt,value
2023-05-21T00:01:51.434Z,88.63
2023-05-21T00:06:53.013Z,87.96
2023-05-21T00:11:54.620Z,87.67
2023-05-21T00:16:56.155Z,86.62
2023-05-21T00:21:57.689Z,87.20
2023-05-21T00:26:59.262Z,86.28
2023-05-21T00:32:01.083Z,87.31
2023-05-21T00:37:03.106Z,86.59
2023-05-21T00:42:04.992Z,86.05
2023-05-21T00:47:07.275Z,86.04
2023-05-21T00:52:09.144Z,86.42
2023-05-21T00:57:10.937Z,85.99
2023-05-21T01:02:14.341Z,86.83
2023-05-21T01:07:15.984Z,86.79
2023-05-21T01:12:18.789Z,86.27
2023-05-21T01:17:24.388Z,86.80
2023-05-21T01:22:28.627Z,86.79
2023-05-21T01:27:30.211Z,86.44
2023-05-21T01:32:38.544Z,86.01
2023-05-21T01:37:50.064Z,86.72
2023-05-21T01:42:52.108Z,85.33
2023-05-21T01:47:55.823Z,87.03
2023-05-21T01:52:58.630Z,86.69
2023-05-21T01:58:02.359Z,86.21
2023-05-21T02:03:04.294Z,86.54
2023-05-21T02:08:08.455Z,86.31
2023-05-21T02:13:10.048Z,86.17
2023-05-21T02:18:16.882Z,86.23
2023-05-21T02:23:18.665Z,87.42
2023-05-21T02:28:21.369Z,88.47
2023-05-21T02:33:23.061Z,86.74
2023-05-21T02:38:25.901Z,85.40
2023-05-21T02:43:27.461Z,85.02
2023-05-21T02:48:28.997Z,85.23
2023-05-21T02:53:30.611Z,86.11
2023-05-21T02:58:33.401Z,86.93
2023-05-21T03:03:35.191Z,86.89
2023-05-21T03:08:37.455Z,87.27
2023-05-21T03:13:39.192Z,85.69
2023-05-21T03:18:40.979Z,88.11
2023-05-21T03:23:42.708Z,84.94
2023-05-21T03:28:44.313Z,84.92
2023-05-21T03:33:46.084Z,85.67
2023-05-21T03:38:47.775Z,86.40
2023-05-21T03:43:49.356Z,86.63
2023-05-21T03:48:51.116Z,85.72
2023-05-21T03:53:52.767Z,86.42
2023-05-21T03:58:54.500Z,86.95
2023-05-21T04:03:56.335Z,85.51
2023-05-21T04:08:58.039Z,84.72
2023-05-21T04:13:59.651Z,86.41
2023-05-21T04:19:01.304Z,89.62
2023-05-21T04:24:03.911Z,88.91
2023-05-21T04:29:05.528Z,89.11
2023-05-21T04:34:07.213Z,87.97
2023-05-21T04:39:08.774Z,87.11
2023-05-21T04:44:10.427Z,87.45
2023-05-21T04:49:12.028Z,89.78
2023-05-21T04:54:13.602Z,88.58
2023-05-21T04:59:16.086Z,87.63
2023-05-21T05:04:17.686Z,87.58
2023-05-21T05:09:21.597Z,87.19
2023-05-21T05:14:23.207Z,87.41
2023-05-21T05:19:24.832Z,90.13
2023-05-21T05:24:26.569Z,90.48
2023-05-21T05:29:28.219Z,90.09
2023-05-21T05:34:29.842Z,90.04
2023-05-21T05:39:31.395Z,90.14
2023-05-21T05:44:32.973Z,90.33
2023-05-21T05:49:34.580Z,88.63
2023-05-21T05:54:36.155Z,88.85
2023-05-21T05:59:37.788Z,89.01
2023-05-21T06:04:39.362Z,90.04
2023-05-21T06:09:41.024Z,91.37
2023-05-21T06:14:44.993Z,92.92
2023-05-21T06:19:47.040Z,92.47
2023-05-21T06:24:49.822Z,93.75
2023-05-21T06:29:51.490Z,93.48
2023-05-21T06:34:53.084Z,94.02
2023-05-21T06:39:54.716Z,94.63
2023-05-21T06:44:56.323Z,93.56
2023-05-21T06:49:58.803Z,90.96
2023-05-21T06:55:00.512Z,87.14
2023-05-21T07:00:02.101Z,87.50
2023-05-21T07:05:03.754Z,88.02
2023-05-21T07:10:05.959Z,86.81
2023-05-21T07:15:08.108Z,86.24
2023-05-21T07:20:10.272Z,84.50
2023-05-21T07:25:11.956Z,85.22
2023-05-21T07:30:14.692Z,82.99
2023-05-21T07:35:16.423Z,84.04
2023-05-21T07:40:18.260Z,84.59
2023-05-21T07:45:19.968Z,82.39
2023-05-21T07:50:22.411Z,82.17
2023-05-21T07:55:24.031Z,80.42
2023-05-21T08:00:25.867Z,81.72
2023-05-21T08:05:27.421Z,79.80
2023-05-21T08:10:29.012Z,81.94
2023-05-21T08:15:30.726Z,82.85
2023-05-21T08:20:35.408Z,80.84
2023-05-21T08:25:37.168Z,79.43
2023-05-21T08:30:38.954Z,76.65
2023-05-21T08:35:40.553Z,75.14
2023-05-21T08:40:42.111Z,78.58
2023-05-21T08:45:59.353Z,80.70
2023-05-21T08:51:01.388Z,80.25
2023-05-21T08:56:03.343Z,78.11
2023-05-21T09:01:05.528Z,78.28
2023-05-21T09:06:11.144Z,75.51
2023-05-21T09:11:14.193Z,72.17
2023-05-21T09:16:15.913Z,71.52
2023-05-21T09:21:29.546Z,73.61
2023-05-21T09:26:31.294Z,71.08
2023-05-21T09:31:33.021Z,70.85
2023-05-21T09:36:38.478Z,67.07
2023-05-21T09:41:42.402Z,66.35
2023-05-21T09:46:44.028Z,70.69
2023-05-21T09:51:45.797Z,66.20
2023-05-21T09:56:47.400Z,63.74
2023-05-21T10:01:53.026Z,64.71
2023-05-21T10:06:54.777Z,60.93
2023-05-21T10:11:57.423Z,59.87
2023-05-21T10:17:00.540Z,62.37
2023-05-21T10:22:04.457Z,59.82
2023-05-21T10:27:07.472Z,56.14
2023-05-21T10:32:10.025Z,58.48
2023-05-21T10:37:13.220Z,55.77
2023-05-21T10:42:38.008Z,55.95
2023-05-21T10:47:42.691Z,55.54
2023-05-21T10:53:10.696Z,60.67
2023-05-21T10:58:12.442Z,61.29
2023-05-21T11:03:15.639Z,57.06
2023-05-21T11:08:28.120Z,58.36
2023-05-21T11:13:48.893Z,57.10
2023-05-21T11:18:50.481Z,55.10
2023-05-21T11:23:52.661Z,54.97
2023-05-21T11:29:06.608Z,54.93
2023-05-21T11:34:11.246Z,57.54
2023-05-21T11:39:21.727Z,53.29
2023-05-21T11:44:44.124Z,50.37
2023-05-21T11:49:46.739Z,52.64
2023-05-21T11:54:57.952Z,49.36
2023-05-21T12:00:01.565Z,50.43
2023-05-21T12:05:03.237Z,47.79
2023-05-21T12:10:05.619Z,47.10
2023-05-21T12:15:07.744Z,45.62
2023-05-21T12:20:10.819Z,46.07
2023-05-21T12:25:12.469Z,48.21
2023-05-21T12:30:14.736Z,48.99
2023-05-21T12:35:23.387Z,45.62
2023-05-21T12:40:36.976Z,44.77
2023-05-21T12:45:41.773Z,43.88
2023-05-21T12:50:43.523Z,42.66
2023-05-21T12:55:45.074Z,45.01
2023-05-21T13:00:46.786Z,40.54
2023-05-21T13:05:48.397Z,45.56
2023-05-21T13:10:50.060Z,47.09
2023-05-21T13:15:52.614Z,44.55
2023-05-21T13:20:54.219Z,46.22
2023-05-21T13:25:55.795Z,48.84
2023-05-21T13:30:57.343Z,50.27
2023-05-21T13:35:58.934Z,48.21
2023-05-21T13:41:00.531Z,50.63
2023-05-21T13:46:03.043Z,47.60
2023-05-21T13:51:04.756Z,48.70
2023-05-21T13:56:06.492Z,47.43
2023-05-21T14:01:08.177Z,45.40
2023-05-21T14:06:09.770Z,46.57
2023-05-21T14:11:11.838Z,45.85
2023-05-21T14:16:13.522Z,45.59
2023-05-21T14:21:15.344Z,45.56
2023-05-21T14:26:17.446Z,48.66
2023-05-21T14:31:21.620Z,46.38
2023-05-21T14:36:23.199Z,49.35
2023-05-21T14:41:26.818Z,45.92
2023-05-21T14:46:28.414Z,48.31
2023-05-21T14:51:30.004Z,49.21
2023-05-21T14:56:31.562Z,48.73
2023-05-21T15:01:33.330Z,51.52
2023-05-21T15:06:35.077Z,50.25
2023-05-21T15:11:36.829Z,51.32
2023-05-21T15:16:38.592Z,51.29
2023-05-21T15:21:40.234Z,52.20
2023-05-21T15:26:41.836Z,54.87
2023-05-21T15:31:43.491Z,58.62
2023-05-21T15:36:45.100Z,58.29
2023-05-21T15:41:46.909Z,57.49
2023-05-21T15:46:53.837Z,59.63
2023-05-21T15:51:57.602Z,58.84
2023-05-21T15:56:59.464Z,56.39
2023-05-21T16:02:01.549Z,57.25
2023-05-21T16:07:03.252Z,57.30
2023-05-21T16:12:05.264Z,57.31
2023-05-21T16:17:07.206Z,55.19
2023-05-21T16:22:10.628Z,56.21
2023-05-21T16:27:12.884Z,54.16
2023-05-21T16:32:15.155Z,54.49
2023-05-21T16:37:22.736Z,54.30
2023-05-21T16:42:24.977Z,54.57
2023-05-21T16:47:27.207Z,54.98
2023-05-21T16:52:29.448Z,56.14
2023-05-21T16:57:31.754Z,54.02
2023-05-21T17:02:34.601Z,53.85
2023-05-21T17:07:36.981Z,54.58
2023-05-21T17:12:39.579Z,56.61
2023-05-21T17:17:41.914Z,57.72
2023-05-21T17:22:44.275Z,57.37
2023-05-21T17:27:46.550Z,56.53
2023-05-21T17:32:48.844Z,57.13
2023-05-21T17:37:51.269Z,58.30
2023-05-21T17:42:53.612Z,58.43
2023-05-21T17:47:59.594Z,59.18
2023-05-21T17:53:02.630Z,60.64
2023-05-21T17:58:06.358Z,61.85
2023-05-21T18:03:08.841Z,62.47
2023-05-21T18:08:11.268Z,62.41
2023-05-21T18:13:13.599Z,64.35
2023-05-21T18:18:21.372Z,64.07
2023-05-21T18:23:24.054Z,64.58
2023-05-21T18:28:28.143Z,64.82
2023-05-21T18:33:31.799Z,64.91
2023-05-21T18:38:34.489Z,65.07
2023-05-21T18:43:37.644Z,65.40
2023-05-21T18:48:40.026Z,65.46
2023-05-21T18:53:42.411Z,67.47
2023-05-21T18:58:44.737Z,67.74
2023-05-21T19:03:47.198Z,68.06
2023-05-21T19:08:49.600Z,68.73
2023-05-21T19:13:51.918Z,70.78
2023-05-21T19:18:54.358Z,68.36
2023-05-21T19:23:58.982Z,68.51
2023-05-21T19:29:01.692Z,68.51
2023-05-21T19:34:11.057Z,68.35
2023-05-21T19:39:13.510Z,67.71
2023-05-21T19:44:15.992Z,68.58
2023-05-21T19:49:20.501Z,69.70
2023-05-21T19:54:23.704Z,70.14
2023-05-21T19:59:26.962Z,69.73
2023-05-21T20:04:29.285Z,69.73
2023-05-21T20:09:31.802Z,70.26
2023-05-21T20:14:36.529Z,72.69
2023-05-21T20:19:39.231Z,72.35
2023-05-21T20:24:41.865Z,71.98
2023-05-21T20:29:44.158Z,70.05
2023-05-21T20:35:02.194Z,70.41
2023-05-21T20:40:07.644Z,72.28
2023-05-21T20:45:10.859Z,71.84
2023-05-21T20:50:13.120Z,71.16
2023-05-21T20:55:15.353Z,69.63
2023-05-21T21:00:17.302Z,71.22
2023-05-21T21:05:20.048Z,71.29
2023-05-21T21:10:21.637Z,72.43
2023-05-21T21:15:23.347Z,70.53
2023-05-21T21:20:25.034Z,71.70
2023-05-21T21:25:26.601Z,72.61
2023-05-21T21:30:28.181Z,72.17
2023-05-21T21:35:29.844Z,72.09
2023-05-21T21:40:31.459Z,72.00
2023-05-21T21:45:33.052Z,72.33
2023-05-21T21:50:34.710Z,73.00
2023-05-21T21:55:36.908Z,72.94
2023-05-21T22:00:38.799Z,71.69
2023-05-21T22:05:40.721Z,72.20
2023-05-21T22:10:42.603Z,71.92
2023-05-21T22:15:44.203Z,72.39
2023-05-21T22:20:48.753Z,73.38
2023-05-21T22:25:50.347Z,73.70
2023-05-21T22:30:51.992Z,74.34
2023-05-21T22:35:54.521Z,72.62
2023-05-21T22:40:56.604Z,73.24
2023-05-21T22:45:58.257Z,73.12
2023-05-21T22:51:01.952Z,73.49
2023-05-21T22:56:03.748Z,73.12
2023-05-21T23:01:05.390Z,73.14
2023-05-21T23:06:07.091Z,73.61
2023-05-21T23:11:08.675Z,72.84
2023-05-21T23:16:10.383Z,73.81
2023-05-21T23:21:12.171Z,73.13
2023-05-21T23:26:14.034Z,72.90
2023-05-21T23:31:15.754Z,73.45
2023-05-21T23:36:20.605Z,74.48
2023-05-21T23:41:23.107Z,73.90
2023-05-21T23:46:24.700Z,72.85
2023-05-21T23:51:26.418Z,73.74
2023-05-21T23:56:28.006Z,74.13
